Time;durP1;ratioP1;P1;durP2;ratioP2;P2;SDS_P1;SDS_P2;PMS_P1;PMS_P2;Temp;Humidity;BMP_temperature;BMP_pressure;BME280_temperature;BME280_humidity;BME280_pressure;Samples;Min_cycle;Max_cycle;Signal;HPM_P1;HPM_P2
2022/03/03 00:01:56;;;;;;;;;;;1.60;99.90;;;;;;5113890;28;19926;-42
2022/03/03 00:04:22;;;;;;;;;;;1.60;99.90;;;;;;5114251;28;19910;-42
2022/03/03 00:06:47;;;;;;;;;;;1.60;99.90;;;;;;5113719;28;19957;-42
2022/03/03 00:09:13;;;;;;;;;;;1.60;99.90;;;;;;5113733;28;19904;-44
2022/03/03 00:11:39;;;;;;;;;;;1.50;99.90;;;;;;5112702;28;19953;-42
2022/03/03 00:14:04;;;;;;;;;;;1.50;99.90;;;;;;5112788;28;19911;-41
2022/03/03 00:16:30;;;;;;;;;;;1.30;99.90;;;;;;5113995;28;19904;-41
2022/03/03 00:18:56;;;;;;;;;;;1.30;99.90;;;;;;5113614;28;20229;-41
2022/03/03 00:21:22;;;;;;;;;;;1.30;99.90;;;;;;5115005;28;19914;-42
2022/03/03 00:23:47;;;;;;;;;;;1.40;99.90;;;;;;5117695;28;20002;-41
2022/03/03 00:26:13;;;;;;;;;;;1.30;99.90;;;;;;5117377;28;19994;-40
2022/03/03 00:28:39;;;;;;;;;;;1.20;99.90;;;;;;5117609;28;19916;-41
2022/03/03 00:31:05;;;;;;;;;;;1.30;99.90;;;;;;5117570;28;19903;-43
2022/03/03 00:33:30;;;;;;;;;;;1.40;99.90;;;;;;5117477;28;20346;-41
2022/03/03 00:35:56;;;;;;;;;;;1.40;99.90;;;;;;5117425;28;19908;-40
2022/03/03 00:38:21;;;;;;;;;;;1.40;99.90;;;;;;5117672;28;19955;-41
2022/03/03 00:40:47;;;;;;;;;;;1.40;99.90;;;;;;5117285;28;19908;-41
2022/03/03 00:43:12;;;;;;;;;;;1.40;99.90;;;;;;5117349;28;20396;-41
2022/03/03 00:45:38;;;;;;;;;;;1.30;99.90;;;;;;5116944;28;19904;-41
2022/03/03 00:48:04;;;;;;;;;;;1.30;99.90;;;;;;5116962;28;20002;-42
2022/03/03 00:50:30;;;;;;;;;;;1.30;99.90;;;;;;5117306;28;19911;-42
2022/03/03 00:52:56;;;;;;;;;;;1.30;99.90;;;;;;5116806;28;20362;-41
2022/03/03 00:55:22;;;;;;;;;;;1.30;99.90;;;;;;5117213;28;19904;-41
2022/03/03 00:57:47;;;;;;;;;;;1.30;99.90;;;;;;5117045;28;20006;-41
2022/03/03 01:00:13;;;;;;;;;;;1.20;99.90;;;;;;5117118;28;19907;-42
2022/03/03 01:02:39;;;;;;;;;;;1.10;99.90;;;;;;5116599;28;20246;-40
2022/03/03 01:05:05;;;;;;;;;;;1.20;99.90;;;;;;5116547;28;19919;-41
2022/03/03 01:07:31;;;;;;;;;;;1.20;99.90;;;;;;5116810;28;19904;-41
2022/03/03 01:09:56;;;;;;;;;;;1.00;99.90;;;;;;5116860;28;20358;-41
2022/03/03 01:12:22;;;;;;;;;;;0.90;99.90;;;;;;5115402;28;19903;-41
2022/03/03 01:14:47;;;;;;;;;;;1.20;99.90;;;;;;5116500;28;19982;-41
2022/03/03 01:17:13;;;;;;;;;;;1.10;99.90;;;;;;5116312;28;19953;-41
2022/03/03 01:19:39;;;;;;;;;;;1.00;99.90;;;;;;5116656;28;19947;-40
2022/03/03 01:22:05;;;;;;;;;;;1.00;99.90;;;;;;5116925;28;19953;-42
2022/03/03 01:24:31;;;;;;;;;;;0.90;99.90;;;;;;5116554;28;20392;-41
2022/03/03 01:26:57;;;;;;;;;;;0.90;99.90;;;;;;5116384;28;20238;-42
2022/03/03 01:29:22;;;;;;;;;;;0.90;99.90;;;;;;5116002;28;19923;-41
2022/03/03 01:31:48;;;;;;;;;;;0.90;99.90;;;;;;5116399;28;19904;-41
2022/03/03 01:34:13;;;;;;;;;;;0.70;99.90;;;;;;5115462;28;19949;-42
2022/03/03 01:36:39;;;;;;;;;;;0.70;99.90;;;;;;5115921;28;19908;-41
2022/03/03 01:39:05;;;;;;;;;;;0.80;99.90;;;;;;5115844;28;19911;-41
2022/03/03 01:41:31;;;;;;;;;;;0.90;99.90;;;;;;5115930;28;19903;-41
2022/03/03 01:43:57;;;;;;;;;;;0.80;99.90;;;;;;5116150;28;20045;-40
2022/03/03 01:46:22;;;;;;;;;;;0.90;99.90;;;;;;5114886;28;19995;-41
2022/03/03 01:48:48;;;;;;;;;;;0.80;99.90;;;;;;5116089;28;19904;-41
2022/03/03 01:51:14;;;;;;;;;;;0.80;99.90;;;;;;5114755;28;19995;-42
2022/03/03 01:53:39;;;;;;;;;;;0.80;99.90;;;;;;5115988;28;19911;-41
2022/03/03 01:56:06;;;;;;;;;;;0.60;99.90;;;;;;5115631;28;19910;-41
2022/03/03 01:58:32;;;;;;;;;;;0.50;99.90;;;;;;5115711;28;20350;-40
2022/03/03 02:00:57;;;;;;;;;;;0.60;99.90;;;;;;5115907;28;19930;-40
2022/03/03 02:03:23;;;;;;;;;;;0.70;99.90;;;;;;5115930;28;19911;-41
2022/03/03 02:05:49;;;;;;;;;;;0.60;99.90;;;;;;5115793;28;20303;-41
2022/03/03 02:08:14;;;;;;;;;;;0.60;99.90;;;;;;5115371;28;19911;-41
2022/03/03 02:10:40;;;;;;;;;;;0.60;99.90;;;;;;5115373;28;19904;-41
2022/03/03 02:13:06;;;;;;;;;;;0.50;99.90;;;;;;5115350;28;19914;-41
2022/03/03 02:15:32;;;;;;;;;;;0.40;99.90;;;;;;5115908;28;19949;-41
2022/03/03 02:17:57;;;;;;;;;;;0.50;99.90;;;;;;5115353;28;19908;-41
2022/03/03 02:20:27;;;;;;;;;;;0.50;99.90;;;;;;5115125;28;19919;-40
2022/03/03 02:22:53;;;;;;;;;;;0.40;99.90;;;;;;5114987;27;19934;-41
2022/03/03 02:25:19;;;;;;;;;;;0.40;99.90;;;;;;5115354;28;19904;-42
2022/03/03 02:27:45;;;;;;;;;;;0.40;99.90;;;;;;5114926;28;19911;-41
2022/03/03 02:30:11;;;;;;;;;;;0.50;99.90;;;;;;5115557;28;19903;-40
2022/03/03 02:32:37;;;;;;;;;;;0.60;99.90;;;;;;5114943;28;20006;-42
2022/03/03 02:35:03;;;;;;;;;;;0.60;99.90;;;;;;5113882;28;19947;-41
2022/03/03 02:37:39;;;;;;;;;;;0.60;99.90;;;;;;5115182;28;19908;-42
2022/03/03 02:40:07;;;;;;;;;;;0.60;99.90;;;;;;5114810;28;19942;-42
2022/03/03 02:42:32;;;;;;;;;;;0.60;99.90;;;;;;5114897;28;20002;-42
2022/03/03 02:44:58;;;;;;;;;;;0.50;99.90;;;;;;5114280;28;19939;-42
2022/03/03 02:47:24;;;;;;;;;;;0.50;99.90;;;;;;5114496;28;19986;-42
2022/03/03 02:49:49;;;;;;;;;;;0.50;99.90;;;;;;5113604;28;19904;-40
2022/03/03 02:52:15;;;;;;;;;;;0.50;99.90;;;;;;5115209;28;20366;-41
2022/03/03 02:54:40;;;;;;;;;;;0.50;99.90;;;;;;5115057;28;20422;-41
2022/03/03 02:59:50;;;;;;;;;;;0.40;99.90;;;;;;5114613;28;19918;-42
2022/03/03 03:02:16;;;;;;;;;;;0.30;99.90;;;;;;5114521;28;19907;-42
2022/03/03 03:04:41;;;;;;;;;;;0.20;99.90;;;;;;5113209;28;19904;-41
2022/03/03 03:07:07;;;;;;;;;;;0.30;99.90;;;;;;5113418;28;19949;-41
2022/03/03 03:09:32;;;;;;;;;;;0.30;99.90;;;;;;5114712;28;19912;-40
2022/03/03 03:11:58;;;;;;;;;;;0.30;99.90;;;;;;5114360;28;19904;-42
2022/03/03 03:14:23;;;;;;;;;;;0.20;99.90;;;;;;5114680;28;19904;-42
2022/03/03 03:16:49;;;;;;;;;;;0.10;99.90;;;;;;5114867;28;19903;-40
2022/03/03 03:19:15;;;;;;;;;;;0.20;99.90;;;;;;5114571;28;19945;-41
2022/03/03 03:21:41;;;;;;;;;;;0.20;99.90;;;;;;5114654;28;19904;-41
2022/03/03 03:24:06;;;;;;;;;;;0.20;99.90;;;;;;5114155;28;19957;-41
2022/03/03 03:26:32;;;;;;;;;;;0.10;99.90;;;;;;5114554;28;19956;-42
2022/03/03 03:28:58;;;;;;;;;;;0.00;99.90;;;;;;5114387;28;19944;-42
2022/03/03 03:31:23;;;;;;;;;;;0.10;99.90;;;;;;5114233;28;19908;-42
2022/03/03 03:33:49;;;;;;;;;;;0.10;99.90;;;;;;5113154;28;19926;-41
2022/03/03 03:36:14;;;;;;;;;;;0.00;99.90;;;;;;5114226;28;19903;-40
2022/03/03 03:38:40;;;;;;;;;;;-0.10;99.90;;;;;;5114117;28;19907;-42
2022/03/03 03:41:05;;;;;;;;;;;-0.20;99.90;;;;;;5114005;28;20078;-41
2022/03/03 03:43:31;;;;;;;;;;;-0.10;99.90;;;;;;5114180;28;19911;-42
2022/03/03 03:45:57;;;;;;;;;;;-0.10;99.90;;;;;;5113942;28;19953;-41
2022/03/03 03:48:22;;;;;;;;;;;-0.10;99.90;;;;;;5113828;28;19910;-41
2022/03/03 03:50:48;;;;;;;;;;;0.00;99.90;;;;;;5114152;28;19904;-41
2022/03/03 03:53:13;;;;;;;;;;;-0.10;99.90;;;;;;5114001;28;19903;-41
2022/03/03 03:55:39;;;;;;;;;;;-0.20;99.90;;;;;;5114184;28;20284;-41
2022/03/03 03:58:04;;;;;;;;;;;-0.10;99.90;;;;;;5118220;28;19908;-41
2022/03/03 04:00:30;;;;;;;;;;;-0.10;99.90;;;;;;5117977;28;19960;-41
2022/03/03 04:02:56;;;;;;;;;;;-0.20;99.90;;;;;;5117760;28;19926;-40
2022/03/03 04:05:22;;;;;;;;;;;-0.10;99.90;;;;;;5117931;28;19911;-41
2022/03/03 04:07:47;;;;;;;;;;;-0.10;99.90;;;;;;5117793;28;19904;-42
2022/03/03 04:10:13;;;;;;;;;;;-0.10;99.90;;;;;;5117937;28;19939;-41
2022/03/03 04:12:39;;;;;;;;;;;-0.10;99.90;;;;;;5117950;28;19919;-41
2022/03/03 04:15:04;;;;;;;;;;;-0.10;99.90;;;;;;5117668;28;19904;-41
2022/03/03 04:17:30;;;;;;;;;;;-0.20;99.90;;;;;;5117476;28;19911;-42
2022/03/03 04:19:56;;;;;;;;;;;-0.10;99.90;;;;;;5117858;28;19912;-42
2022/03/03 04:22:21;;;;;;;;;;;-0.20;99.90;;;;;;5117573;28;19903;-42
2022/03/03 04:24:47;;;;;;;;;;;-0.30;99.90;;;;;;5117388;28;19984;-42
2022/03/03 04:27:12;;;;;;;;;;;-0.30;99.90;;;;;;5117243;28;19940;-42
2022/03/03 04:29:38;;;;;;;;;;;-0.20;99.90;;;;;;5117665;28;19915;-42
2022/03/03 04:32:04;;;;;;;;;;;-0.20;99.90;;;;;;5117621;28;20241;-42
2022/03/03 04:34:29;;;;;;;;;;;-0.20;99.90;;;;;;5117486;28;19903;-42
2022/03/03 04:36:55;;;;;;;;;;;-0.20;99.90;;;;;;5117373;28;19903;-42
2022/03/03 04:39:21;;;;;;;;;;;-0.30;99.90;;;;;;5117485;28;19908;-41
2022/03/03 04:41:46;;;;;;;;;;;-0.30;99.90;;;;;;5117361;28;19950;-41
2022/03/03 04:44:12;;;;;;;;;;;-0.30;99.90;;;;;;5117322;28;19983;-42
2022/03/03 04:46:37;;;;;;;;;;;-0.30;99.90;;;;;;5117237;28;19997;-42
2022/03/03 04:49:03;;;;;;;;;;;-0.30;99.90;;;;;;5117095;28;19904;-41
2022/03/03 04:51:29;;;;;;;;;;;-0.40;99.90;;;;;;5115895;28;19904;-42
2022/03/03 04:53:55;;;;;;;;;;;-0.50;99.90;;;;;;5116982;28;19935;-41
2022/03/03 04:56:20;;;;;;;;;;;-0.50;99.90;;;;;;5115488;28;19910;-42
2022/03/03 04:58:46;;;;;;;;;;;-0.40;99.90;;;;;;5116675;28;19937;-42
2022/03/03 05:01:11;;;;;;;;;;;-0.40;99.90;;;;;;5116711;28;19919;-41
2022/03/03 05:03:37;;;;;;;;;;;-0.40;99.90;;;;;;5117156;28;20361;-42
2022/03/03 05:06:03;;;;;;;;;;;-0.40;99.90;;;;;;5116928;28;19903;-42
2022/03/03 05:08:28;;;;;;;;;;;-0.40;99.90;;;;;;5116827;28;19903;-42
2022/03/03 05:10:54;;;;;;;;;;;-0.40;99.90;;;;;;5117068;28;19911;-42
2022/03/03 05:13:19;;;;;;;;;;;-0.40;99.90;;;;;;5116163;28;20308;-41
2022/03/03 05:15:46;;;;;;;;;;;-0.40;99.90;;;;;;5116614;28;19903;-40
2022/03/03 05:18:11;;;;;;;;;;;-0.40;99.90;;;;;;5116260;28;19991;-41
2022/03/03 05:20:38;;;;;;;;;;;-0.40;99.90;;;;;;5116589;28;20022;-42
2022/03/03 05:23:04;;;;;;;;;;;-0.40;99.90;;;;;;5116417;28;19950;-42
2022/03/03 05:25:29;;;;;;;;;;;-0.30;99.90;;;;;;5116699;28;19937;-42
2022/03/03 05:27:55;;;;;;;;;;;-0.30;99.90;;;;;;5116124;28;19915;-42
2022/03/03 05:30:20;;;;;;;;;;;-0.40;99.90;;;;;;5115464;28;19911;-43
2022/03/03 05:32:48;;;;;;;;;;;-0.40;99.90;;;;;;5115980;28;19954;-41
2022/03/03 05:35:14;;;;;;;;;;;-0.40;99.90;;;;;;5116238;28;19911;-41
2022/03/03 05:37:40;;;;;;;;;;;-0.30;99.90;;;;;;5115845;28;20273;-42
2022/03/03 05:40:05;;;;;;;;;;;-0.40;99.90;;;;;;5116223;28;19908;-42
2022/03/03 05:42:31;;;;;;;;;;;-0.40;99.90;;;;;;5116152;28;19903;-41
2022/03/03 05:44:56;;;;;;;;;;;-0.40;99.90;;;;;;5115751;28;19921;-41
2022/03/03 05:47:25;;;;;;;;;;;-0.50;99.90;;;;;;5115592;28;19911;-42
2022/03/03 05:49:54;;;;;;;;;;;-0.30;99.90;;;;;;5115705;28;19911;-42
2022/03/03 05:52:19;;;;;;;;;;;-0.30;99.90;;;;;;5116044;28;20305;-41
2022/03/03 05:54:45;;;;;;;;;;;-0.20;99.90;;;;;;5114376;28;19927;-48
2022/03/03 05:57:15;;;;;;;;;;;-0.30;99.90;;;;;;5115431;28;20387;-42
2022/03/03 05:59:41;;;;;;;;;;;-0.40;99.90;;;;;;5115467;28;19907;-41
2022/03/03 06:02:09;;;;;;;;;;;-0.40;99.90;;;;;;5115186;28;19904;-41
2022/03/03 06:04:37;;;;;;;;;;;-0.30;99.90;;;;;;5115238;28;19943;-41
2022/03/03 06:07:05;;;;;;;;;;;-0.40;99.90;;;;;;5115178;28;20230;-42
2022/03/03 06:09:32;;;;;;;;;;;-0.40;99.90;;;;;;5115148;28;19904;-41
2022/03/03 06:12:04;;;;;;;;;;;-0.20;99.90;;;;;;5114963;28;19903;-42
2022/03/03 06:14:31;;;;;;;;;;;-0.20;99.90;;;;;;5089499;28;19912;-42
2022/03/03 06:16:57;;;;;;;;;;;-0.10;99.90;;;;;;5090584;28;19915;-42
2022/03/03 06:19:23;;;;;;;;;;;-0.20;99.90;;;;;;5093569;28;19912;-42
2022/03/03 06:21:49;;;;;;;;;;;-0.20;99.90;;;;;;5094928;28;19913;-42
2022/03/03 06:24:14;;;;;;;;;;;0.00;99.90;;;;;;5094287;28;19961;-41
2022/03/03 06:26:40;;;;;;;;;;;0.10;99.90;;;;;;5094182;28;19915;-42
2022/03/03 06:29:05;;;;;;;;;;;0.20;99.90;;;;;;5093668;28;19998;-42
2022/03/03 06:31:31;;;;;;;;;;;0.30;99.90;;;;;;5093829;28;19943;-43
2022/03/03 06:33:56;;;;;;;;;;;0.30;99.90;;;;;;5090106;28;20020;-41
2022/03/03 06:36:22;;;;;;;;;;;0.40;99.90;;;;;;5094572;28;19909;-41
2022/03/03 06:38:47;;;;;;;;;;;0.40;99.90;;;;;;5093974;28;20286;-42
2022/03/03 06:41:13;;;;;;;;;;;0.60;99.90;;;;;;5093903;28;20326;-42
2022/03/03 06:43:39;;;;;;;;;;;0.70;99.90;;;;;;5092384;28;19915;-42
2022/03/03 06:46:05;;;;;;;;;;;0.90;99.90;;;;;;5094082;28;19951;-40
2022/03/03 06:48:31;;;;;;;;;;;1.00;99.90;;;;;;5093942;28;19908;-42
2022/03/03 06:50:57;;;;;;;;;;;1.00;99.90;;;;;;5093300;28;19912;-42
2022/03/03 06:53:26;;;;;;;;;;;1.20;99.90;;;;;;5092654;28;20004;-41
2022/03/03 06:55:53;;;;;;;;;;;1.30;99.90;;;;;;5093616;28;19994;-42
2022/03/03 06:58:21;;;;;;;;;;;1.50;99.90;;;;;;5093791;28;20003;-42
2022/03/03 07:00:51;;;;;;;;;;;1.60;99.90;;;;;;5093490;28;19912;-41
2022/03/03 07:03:16;;;;;;;;;;;1.60;99.90;;;;;;5092272;28;19912;-42
2022/03/03 07:05:42;;;;;;;;;;;1.80;99.90;;;;;;5093648;28;20400;-42
2022/03/03 07:08:09;;;;;;;;;;;1.80;99.90;;;;;;5093701;28;19915;-42
2022/03/03 07:10:35;;;;;;;;;;;1.80;99.90;;;;;;5092469;28;19908;-41
2022/03/03 07:13:00;;;;;;;;;;;2.00;99.90;;;;;;5093348;28;19909;-43
2022/03/03 07:15:26;;;;;;;;;;;2.20;99.90;;;;;;5092299;28;19919;-41
2022/03/03 07:18:18;;;;;;;;;;;2.30;99.90;;;;;;5093332;28;19912;-42
2022/03/03 07:21:02;;;;;;;;;;;2.50;99.90;;;;;;5085786;28;19919;-42
2022/03/03 07:23:32;;;;;;;;;;;2.60;99.90;;;;;;5088634;28;19943;-42
2022/03/03 07:25:58;;;;;;;;;;;2.80;99.90;;;;;;5093128;28;20300;-45
2022/03/03 07:28:27;;;;;;;;;;;3.00;99.90;;;;;;5076391;28;19920;-41
2022/03/03 07:30:52;;;;;;;;;;;3.10;99.90;;;;;;5088142;28;19919;-42
2022/03/03 07:33:23;;;;;;;;;;;3.20;99.90;;;;;;5092839;28;19912;-42
2022/03/03 07:35:49;;;;;;;;;;;3.20;99.90;;;;;;5085191;28;19908;-42
2022/03/03 07:38:23;;;;;;;;;;;3.60;99.90;;;;;;5085074;28;19970;-41
2022/03/03 07:40:49;;;;;;;;;;;3.70;99.90;;;;;;5097218;28;19912;-42
2022/03/03 07:43:15;;;;;;;;;;;3.70;99.90;;;;;;5096979;28;19919;-41
2022/03/03 07:45:41;;;;;;;;;;;3.80;99.90;;;;;;5096963;28;19922;-42
2022/03/03 07:48:07;;;;;;;;;;;3.70;99.90;;;;;;5093181;28;20362;-41
2022/03/03 07:50:39;;;;;;;;;;;3.70;99.90;;;;;;5096526;28;19918;-42
2022/03/03 07:53:06;;;;;;;;;;;3.70;99.90;;;;;;5079275;28;20278;-42
2022/03/03 07:55:33;;;;;;;;;;;3.90;99.90;;;;;;5077623;28;20247;-41
2022/03/03 07:57:58;;;;;;;;;;;4.10;99.90;;;;;;5092855;28;19916;-41
2022/03/03 08:00:27;;;;;;;;;;;4.20;99.90;;;;;;5092566;28;19957;-42
2022/03/03 08:02:53;;;;;;;;;;;4.50;99.90;;;;;;5081387;28;19920;-42
2022/03/03 08:05:19;;;;;;;;;;;4.90;99.90;;;;;;5094999;28;19999;-42
2022/03/03 08:07:46;;;;;;;;;;;5.00;99.90;;;;;;5096758;28;20349;-41
2022/03/03 08:10:13;;;;;;;;;;;5.30;99.90;;;;;;5081762;28;19908;-42
2022/03/03 08:12:40;;;;;;;;;;;5.40;99.90;;;;;;5084025;28;19952;-42
2022/03/03 08:15:06;;;;;;;;;;;5.40;99.90;;;;;;5077607;28;19913;-41
2022/03/03 08:17:33;;;;;;;;;;;5.40;99.90;;;;;;5092138;28;19927;-42
2022/03/03 08:20:00;;;;;;;;;;;5.40;99.90;;;;;;5104179;28;19922;-41
2022/03/03 08:22:27;;;;;;;;;;;5.60;99.90;;;;;;5105290;28;19912;-42
2022/03/03 08:24:56;;;;;;;;;;;5.50;99.90;;;;;;5096250;28;19913;-42
2022/03/03 08:27:22;;;;;;;;;;;5.60;99.90;;;;;;5096021;28;20282;-41
2022/03/03 08:29:48;;;;;;;;;;;5.70;99.90;;;;;;5101279;28;20340;-41
2022/03/03 08:32:16;;;;;;;;;;;5.50;99.90;;;;;;5099076;28;19919;-41
2022/03/03 08:35:00;;;;;;;;;;;5.30;99.90;;;;;;5109092;28;19908;-42
2022/03/03 08:37:33;;;;;;;;;;;5.20;99.90;;;;;;5114284;28;19915;-42
2022/03/03 08:40:00;;;;;;;;;;;5.30;99.90;;;;;;5078102;28;19923;-42
2022/03/03 08:42:28;;;;;;;;;;;5.10;99.90;;;;;;5075775;28;19913;-42
2022/03/03 08:44:57;;;;;;;;;;;5.50;99.90;;;;;;5099445;28;19916;-42
2022/03/03 08:47:22;;;;;;;;;;;5.80;99.90;;;;;;5085862;28;20283;-42
2022/03/03 08:49:51;;;;;;;;;;;5.90;99.90;;;;;;5091419;28;19987;-42
2022/03/03 08:52:17;;;;;;;;;;;5.80;99.90;;;;;;5076597;28;19916;-41
2022/03/03 08:54:43;;;;;;;;;;;6.10;99.90;;;;;;5076287;28;19912;-41
2022/03/03 08:57:08;;;;;;;;;;;6.30;99.90;;;;;;5087519;28;19919;-42
2022/03/03 08:59:34;;;;;;;;;;;6.10;99.90;;;;;;5092062;28;20056;-42
2022/03/03 09:02:00;;;;;;;;;;;6.20;99.90;;;;;;5084759;28;19920;-41
2022/03/03 09:04:25;;;;;;;;;;;6.30;99.90;;;;;;5076386;28;20410;-44
2022/03/03 09:06:51;;;;;;;;;;;6.40;99.90;;;;;;5076578;28;19908;-42
2022/03/03 09:09:16;;;;;;;;;;;6.30;99.90;;;;;;5094301;28;19917;-42
2022/03/03 09:11:42;;;;;;;;;;;6.60;99.90;;;;;;5095081;28;20290;-41
2022/03/03 09:14:08;;;;;;;;;;;6.90;99.90;;;;;;5076767;28;19920;-41
2022/03/03 09:16:34;;;;;;;;;;;7.20;99.90;;;;;;5077438;28;20391;-41
2022/03/03 09:19:00;;;;;;;;;;;7.40;99.90;;;;;;5082044;28;19931;-41
2022/03/03 09:21:27;;;;;;;;;;;7.50;99.90;;;;;;5090598;28;20338;-43
2022/03/03 09:23:53;;;;;;;;;;;7.60;99.90;;;;;;5102105;28;20355;-42
2022/03/03 09:26:18;;;;;;;;;;;7.90;99.90;;;;;;5080143;28;19920;-42
2022/03/03 09:28:44;;;;;;;;;;;7.80;99.00;;;;;;5079879;28;19927;-42
2022/03/03 09:31:09;;;;;;;;;;;7.70;98.90;;;;;;5081450;28;19913;-42
2022/03/03 09:33:35;;;;;;;;;;;7.80;99.90;;;;;;5074362;28;20003;-41
2022/03/03 09:36:00;;;;;;;;;;;7.50;99.90;;;;;;5079394;28;20017;-42
2022/03/03 09:38:26;;;;;;;;;;;7.80;99.60;;;;;;5083679;28;20005;-47
2022/03/03 09:40:51;;;;;;;;;;;7.60;98.50;;;;;;5092763;28;19923;-41
2022/03/03 09:43:17;;;;;;;;;;;7.30;99.00;;;;;;5092655;28;19916;-41
2022/03/03 09:45:43;;;;;;;;;;;7.10;98.60;;;;;;5095003;28;19908;-43
2022/03/03 09:48:09;;;;;;;;;;;7.10;99.90;;;;;;5092775;28;19912;-42
2022/03/03 09:50:36;;;;;;;;;;;7.40;99.90;;;;;;5092447;28;19958;-42
2022/03/03 09:53:13;;;;;;;;;;;7.80;99.20;;;;;;5089499;28;19923;-42
2022/03/03 09:55:39;;;;;;;;;;;7.70;98.00;;;;;;5075368;28;19913;-41
2022/03/03 09:58:06;;;;;;;;;;;7.30;98.40;;;;;;5093891;28;19916;-43
2022/03/03 10:00:36;;;;;;;;;;;7.30;98.00;;;;;;5075825;28;19924;-41
2022/03/03 10:03:10;;;;;;;;;;;7.20;99.00;;;;;;5075320;28;19919;-42
2022/03/03 10:05:35;;;;;;;;;;;7.60;98.40;;;;;;5081638;28;19927;-42
2022/03/03 10:08:02;;;;;;;;;;;7.70;98.00;;;;;;5076259;28;20275;-41
2022/03/03 10:10:28;;;;;;;;;;;7.60;98.10;;;;;;5086650;28;20432;-43
2022/03/03 10:12:55;;;;;;;;;;;7.90;99.70;;;;;;5075378;28;20006;-42
2022/03/03 10:15:24;;;;;;;;;;;7.50;98.70;;;;;;5083332;28;20043;-42
2022/03/03 10:17:54;;;;;;;;;;;7.60;97.90;;;;;;5110181;28;19985;-42
2022/03/03 10:20:19;;;;;;;;;;;7.70;98.80;;;;;;5093610;28;19916;-42
2022/03/03 10:22:46;;;;;;;;;;;7.80;98.20;;;;;;5086669;28;19919;-42
2022/03/03 10:25:13;;;;;;;;;;;8.00;99.60;;;;;;5084249;28;19919;-42
2022/03/03 10:27:38;;;;;;;;;;;7.90;99.30;;;;;;5092305;28;19913;-41
2022/03/03 10:30:06;;;;;;;;;;;7.90;98.60;;;;;;5081293;28;19927;-42
2022/03/03 10:32:35;;;;;;;;;;;7.60;98.30;;;;;;5073726;28;19908;-41
2022/03/03 10:35:11;;;;;;;;;;;7.70;98.00;;;;;;5076997;28;19912;-43
2022/03/03 10:37:36;;;;;;;;;;;7.40;98.10;;;;;;5091467;28;20014;-42
2022/03/03 10:40:02;;;;;;;;;;;7.40;97.90;;;;;;5083450;28;19986;-42
2022/03/03 10:42:28;;;;;;;;;;;7.90;98.40;;;;;;5073885;28;19944;-44
2022/03/03 10:45:21;;;;;;;;;;;8.30;99.80;;;;;;5076013;28;19912;-42
2022/03/03 10:47:58;;;;;;;;;;;8.30;96.60;;;;;;5083352;28;19916;-41
2022/03/03 10:50:23;;;;;;;;;;;8.60;98.30;;;;;;5089919;28;19912;-41
2022/03/03 10:52:49;;;;;;;;;;;8.80;94.90;;;;;;5086389;28;20015;-42
2022/03/03 10:55:16;;;;;;;;;;;8.50;94.20;;;;;;5087607;28;19981;-42
2022/03/03 10:57:42;;;;;;;;;;;8.90;93.70;;;;;;5092829;28;19912;-42
2022/03/03 11:00:09;;;;;;;;;;;8.30;93.20;;;;;;5093026;28;20007;-42
2022/03/03 11:02:35;;;;;;;;;;;8.40;93.30;;;;;;5086831;28;19926;-42
2022/03/03 11:05:01;;;;;;;;;;;8.70;94.10;;;;;;5081867;28;19995;-43
2022/03/03 11:07:26;;;;;;;;;;;8.80;93.90;;;;;;5091978;28;19955;-44
2022/03/03 11:09:53;;;;;;;;;;;9.10;95.60;;;;;;5072392;28;19912;-45
2022/03/03 11:12:19;;;;;;;;;;;8.80;91.30;;;;;;5087887;28;19921;-44
2022/03/03 11:14:45;;;;;;;;;;;8.70;92.50;;;;;;5075854;28;19913;-42
2022/03/03 11:17:11;;;;;;;;;;;9.20;94.70;;;;;;5089333;28;19969;-43
2022/03/03 11:19:40;;;;;;;;;;;9.30;91.40;;;;;;5091026;28;19951;-41
2022/03/03 11:22:06;;;;;;;;;;;9.00;91.40;;;;;;5089101;28;20315;-43
2022/03/03 11:24:32;;;;;;;;;;;8.70;92.80;;;;;;5087124;28;19912;-42
2022/03/03 11:27:01;;;;;;;;;;;8.60;91.60;;;;;;5092814;28;20396;-42
2022/03/03 11:29:27;;;;;;;;;;;9.20;91.10;;;;;;5092585;28;19965;-42
2022/03/03 11:32:03;;;;;;;;;;;9.60;92.30;;;;;;5091434;28;19966;-43
2022/03/03 11:34:32;;;;;;;;;;;9.90;91.60;;;;;;5081943;28;19912;-43
2022/03/03 11:37:09;;;;;;;;;;;9.60;92.90;;;;;;5082313;28;19962;-42
2022/03/03 11:39:41;;;;;;;;;;;9.50;86.90;;;;;;5091564;28;19920;-47
2022/03/03 11:42:15;;;;;;;;;;;9.40;90.60;;;;;;5092455;28;20282;-43
2022/03/03 11:44:41;;;;;;;;;;;9.00;87.80;;;;;;5084585;28;19912;-43
2022/03/03 11:47:26;;;;;;;;;;;9.00;86.70;;;;;;5091472;28;19912;-42
2022/03/03 11:49:59;;;;;;;;;;;9.30;85.50;;;;;;5073959;28;19947;-43
2022/03/03 11:52:24;;;;;;;;;;;9.40;84.20;;;;;;5080758;28;19912;-43
2022/03/03 11:54:59;;;;;;;;;;;9.50;87.10;;;;;;5092701;28;20419;-43
2022/03/03 11:57:28;;;;;;;;;;;9.70;87.10;;;;;;5090685;28;20019;-42
2022/03/03 11:59:54;;;;;;;;;;;9.30;83.50;;;;;;5085226;28;19947;-40
2022/03/03 12:02:27;;;;;;;;;;;9.30;87.40;;;;;;5090424;28;20361;-40
2022/03/03 12:05:11;;;;;;;;;;;9.10;84.20;;;;;;5072131;28;20379;-45
2022/03/03 12:07:37;;;;;;;;;;;8.90;84.60;;;;;;5075791;28;19917;-46
2022/03/03 12:10:13;;;;;;;;;;;9.30;84.80;;;;;;5075767;28;20274;-41
2022/03/03 12:12:38;;;;;;;;;;;9.20;83.50;;;;;;5073784;28;19947;-42
2022/03/03 12:15:04;;;;;;;;;;;9.10;83.60;;;;;;5086626;28;19919;-42
2022/03/03 12:17:42;;;;;;;;;;;9.60;88.50;;;;;;5092716;28;19951;-45
2022/03/03 12:20:40;;;;;;;;;;;9.80;83.70;;;;;;5096538;28;19912;-44
2022/03/03 12:23:05;;;;;;;;;;;10.10;83.80;;;;;;5090068;28;20321;-43
2022/03/03 12:25:50;;;;;;;;;;;9.70;80.50;;;;;;5091859;28;19912;-47
2022/03/03 12:28:19;;;;;;;;;;;9.90;84.80;;;;;;5096212;28;20345;-45
2022/03/03 12:30:45;;;;;;;;;;;9.50;80.10;;;;;;5096124;28;19912;-41
2022/03/03 12:33:22;;;;;;;;;;;9.30;81.40;;;;;;5079819;28;19912;-42
2022/03/03 12:35:48;;;;;;;;;;;9.30;80.20;;;;;;5075938;28;19908;-41
2022/03/03 12:38:13;;;;;;;;;;;9.50;80.20;;;;;;5083583;28;19916;-42
2022/03/03 12:40:39;;;;;;;;;;;9.80;79.20;;;;;;5094968;28;19912;-48
2022/03/03 12:43:16;;;;;;;;;;;10.10;77.20;;;;;;5093037;28;19912;-46
2022/03/03 12:45:42;;;;;;;;;;;9.90;78.00;;;;;;5096479;28;19959;-41
2022/03/03 12:48:08;;;;;;;;;;;9.80;76.40;;;;;;5095551;28;19908;-44
2022/03/03 12:50:35;;;;;;;;;;;10.00;77.20;;;;;;5095722;28;19919;-42
2022/03/03 12:53:01;;;;;;;;;;;10.10;78.50;;;;;;5096242;28;19923;-48
2022/03/03 12:55:34;;;;;;;;;;;10.20;81.10;;;;;;5087429;28;19920;-42
2022/03/03 12:58:00;;;;;;;;;;;10.30;76.40;;;;;;5086025;28;19923;-49
2022/03/03 13:00:26;;;;;;;;;;;10.30;75.30;;;;;;5089770;28;20288;-45
2022/03/03 13:02:53;;;;;;;;;;;10.10;73.80;;;;;;5095146;28;19920;-45
2022/03/03 13:05:38;;;;;;;;;;;9.70;74.60;;;;;;5076507;28;19913;-43
2022/03/03 13:08:05;;;;;;;;;;;9.60;78.60;;;;;;5077452;28;19951;-47
2022/03/03 13:10:31;;;;;;;;;;;9.50;73.70;;;;;;5075940;28;19909;-46
2022/03/03 13:12:57;;;;;;;;;;;9.30;75.30;;;;;;5093747;27;20278;-43
2022/03/03 13:15:29;;;;;;;;;;;9.50;78.00;;;;;;5092904;28;19912;-43
2022/03/03 13:17:59;;;;;;;;;;;9.60;73.60;;;;;;5092771;28;19927;-42
2022/03/03 13:20:25;;;;;;;;;;;9.90;74.50;;;;;;5086878;28;19923;-44
2022/03/03 13:22:50;;;;;;;;;;;9.90;74.30;;;;;;5091576;28;20298;-42
2022/03/03 13:25:16;;;;;;;;;;;9.70;73.70;;;;;;5113660;28;19912;-42
2022/03/03 13:27:43;;;;;;;;;;;10.00;74.60;;;;;;5087941;28;20011;-43
2022/03/03 13:30:08;;;;;;;;;;;9.90;72.60;;;;;;5083632;28;19973;-46
2022/03/03 13:32:42;;;;;;;;;;;9.70;72.80;;;;;;5079781;28;19917;-51
2022/03/03 13:35:08;;;;;;;;;;;9.70;73.10;;;;;;5091231;28;19913;-41
2022/03/03 13:37:33;;;;;;;;;;;9.80;72.30;;;;;;5075514;28;19923;-45
2022/03/03 13:40:10;;;;;;;;;;;9.70;71.90;;;;;;5087525;28;20362;-41
2022/03/03 13:42:38;;;;;;;;;;;10.00;73.10;;;;;;5074564;28;20343;-44
2022/03/03 13:45:03;;;;;;;;;;;10.00;71.70;;;;;;5082064;28;20285;-42
2022/03/03 13:47:30;;;;;;;;;;;9.70;71.90;;;;;;5079723;28;19996;-43
2022/03/03 13:49:57;;;;;;;;;;;9.80;71.00;;;;;;5074609;28;20011;-46
2022/03/03 13:52:33;;;;;;;;;;;9.60;69.60;;;;;;5082526;28;20022;-42
2022/03/03 13:54:59;;;;;;;;;;;9.70;69.10;;;;;;5074699;28;19965;-41
2022/03/03 13:57:33;;;;;;;;;;;9.60;69.00;;;;;;5089897;28;19912;-43
2022/03/03 13:59:59;;;;;;;;;;;9.70;71.70;;;;;;5077428;28;19982;-40
2022/03/03 14:02:25;;;;;;;;;;;9.70;70.40;;;;;;5082267;28;19920;-42
2022/03/03 14:05:01;;;;;;;;;;;9.80;70.10;;;;;;5080744;28;19916;-41
2022/03/03 14:07:30;;;;;;;;;;;10.10;73.20;;;;;;5078730;28;20427;-42
2022/03/03 14:10:00;;;;;;;;;;;9.90;68.40;;;;;;5076005;28;19913;-41
2022/03/03 14:12:27;;;;;;;;;;;10.10;70.80;;;;;;5082044;28;19912;-41
2022/03/03 14:14:52;;;;;;;;;;;10.20;67.90;;;;;;5080584;28;19912;-42
2022/03/03 14:17:18;;;;;;;;;;;10.30;68.50;;;;;;5085540;28;19912;-41
2022/03/03 14:19:44;;;;;;;;;;;10.10;66.20;;;;;;5093736;28;19918;-43
2022/03/03 14:22:10;;;;;;;;;;;10.10;68.30;;;;;;5085309;28;20335;-42
2022/03/03 14:24:38;;;;;;;;;;;10.20;68.70;;;;;;5088009;28;19912;-41
2022/03/03 14:27:04;;;;;;;;;;;10.10;70.40;;;;;;5092018;28;19951;-42
2022/03/03 14:29:30;;;;;;;;;;;10.20;67.60;;;;;;5087100;28;20284;-43